createdAt,value
2022-12-27T00:01:29.516Z,3.90
2022-12-27T00:03:56.545Z,4.00
2022-12-27T00:06:25.262Z,3.90
2022-12-27T00:08:52.522Z,3.90
2022-12-27T00:11:22.584Z,3.90
2022-12-27T00:13:49.817Z,3.90
2022-12-27T00:16:19.393Z,3.80
2022-12-27T00:18:47.381Z,3.80
2022-12-27T00:21:15.235Z,3.80
2022-12-27T00:23:45.271Z,3.80
2022-12-27T00:26:18.365Z,3.80
2022-12-27T00:28:45.950Z,3.80
2022-12-27T00:31:13.859Z,3.80
2022-12-27T00:33:42.070Z,3.80
2022-12-27T00:36:12.030Z,3.80
2022-12-27T00:38:39.000Z,3.90
2022-12-27T00:41:07.131Z,3.90
2022-12-27T00:43:34.624Z,3.80
2022-12-27T00:46:02.217Z,3.80
2022-12-27T00:48:29.430Z,3.90
2022-12-27T00:51:23.719Z,3.80
2022-12-27T00:53:52.602Z,3.80
2022-12-27T00:56:31.032Z,3.80
2022-12-27T00:59:00.732Z,3.80
2022-12-27T01:01:30.435Z,3.80
2022-12-27T01:03:58.596Z,3.80
2022-12-27T01:06:29.203Z,3.80
2022-12-27T01:08:56.936Z,3.70
2022-12-27T01:11:24.610Z,3.70
2022-12-27T01:13:51.688Z,3.70
2022-12-27T01:16:21.556Z,3.70
2022-12-27T01:18:49.204Z,3.80
2022-12-27T01:21:19.221Z,3.80
2022-12-27T01:23:46.657Z,3.80
2022-12-27T01:26:16.818Z,3.80
2022-12-27T01:28:44.398Z,3.80
2022-12-27T01:31:17.179Z,3.80
2022-12-27T01:33:44.399Z,3.80
2022-12-27T01:36:16.013Z,3.80
2022-12-27T01:38:43.629Z,3.80
2022-12-27T01:41:40.994Z,3.80
2022-12-27T01:44:38.941Z,3.80
2022-12-27T01:47:43.169Z,3.90
2022-12-27T01:50:27.763Z,3.90
2022-12-27T01:53:01.031Z,3.80
2022-12-27T01:55:37.938Z,3.80
2022-12-27T01:58:21.795Z,3.90
2022-12-27T02:00:50.739Z,3.80
2022-12-27T02:03:28.345Z,3.80
2022-12-27T02:05:56.769Z,3.80
2022-12-27T02:08:29.457Z,3.80
2022-12-27T02:10:58.433Z,3.80
2022-12-27T02:13:25.827Z,3.80
2022-12-27T02:15:52.716Z,3.80
2022-12-27T02:18:19.839Z,3.90
2022-12-27T02:21:13.501Z,3.80
2022-12-27T02:24:03.217Z,3.80
2022-12-27T02:26:33.317Z,3.80
2022-12-27T02:29:00.215Z,3.80
2022-12-27T02:32:03.842Z,3.80
2022-12-27T02:35:04.997Z,3.80
2022-12-27T02:37:34.730Z,3.80
2022-12-27T02:40:24.861Z,3.90
2022-12-27T02:43:12.115Z,3.90
2022-12-27T02:46:09.276Z,3.90
2022-12-27T02:48:54.475Z,3.90
2022-12-27T02:52:11.501Z,3.90
2022-12-27T02:54:41.406Z,4.00
2022-12-27T02:57:20.354Z,4.00
2022-12-27T03:00:21.541Z,3.90
2022-12-27T03:03:28.622Z,4.00
2022-12-27T03:06:41.536Z,3.90
2022-12-27T03:09:48.259Z,4.00
2022-12-27T03:12:51.891Z,4.10
2022-12-27T03:15:55.743Z,4.00
2022-12-27T03:18:30.730Z,3.90
2022-12-27T03:21:18.137Z,4.00
2022-12-27T03:24:06.470Z,4.00
2022-12-27T03:26:36.144Z,4.00
2022-12-27T03:29:24.144Z,4.00
2022-12-27T03:32:17.887Z,4.00
2022-12-27T03:34:53.731Z,3.90
2022-12-27T03:37:50.825Z,3.90
2022-12-27T03:40:38.954Z,3.90
2022-12-27T03:43:13.292Z,3.90
2022-12-27T03:46:23.845Z,3.90
2022-12-27T03:49:02.700Z,3.90
2022-12-27T03:51:35.928Z,4.00
2022-12-27T03:54:10.513Z,4.00
2022-12-27T03:56:38.962Z,4.00
2022-12-27T03:59:06.843Z,4.10
2022-12-27T04:01:33.730Z,4.10
2022-12-27T04:04:01.131Z,4.10
2022-12-27T04:06:27.972Z,4.10
2022-12-27T04:09:13.775Z,4.10
2022-12-27T04:11:59.667Z,4.00
2022-12-27T04:14:45.259Z,4.00
2022-12-27T04:17:31.053Z,4.00
2022-12-27T04:20:16.401Z,4.00
2022-12-27T04:23:02.076Z,4.00
2022-12-27T04:25:47.224Z,4.00
2022-12-27T04:28:32.794Z,3.90
2022-12-27T04:31:18.252Z,3.90
2022-12-27T04:34:03.987Z,3.90
2022-12-27T04:36:30.859Z,3.90
2022-12-27T04:38:58.015Z,3.80
2022-12-27T04:41:43.630Z,3.90
2022-12-27T04:44:29.186Z,3.80
2022-12-27T04:47:14.564Z,3.80
2022-12-27T04:50:00.192Z,3.80
2022-12-27T04:52:45.617Z,3.80
2022-12-27T04:55:25.494Z,3.70
2022-12-27T04:57:53.319Z,3.70
2022-12-27T05:00:41.288Z,3.80
2022-12-27T05:03:26.757Z,3.80
2022-12-27T05:05:53.913Z,3.80
2022-12-27T05:08:40.075Z,3.80
2022-12-27T05:11:26.929Z,3.80
2022-12-27T05:13:59.567Z,3.70
2022-12-27T05:16:32.526Z,3.80
2022-12-27T05:18:59.476Z,3.80
2022-12-27T05:21:26.516Z,3.90
2022-12-27T05:24:12.464Z,3.90
2022-12-27T05:26:39.899Z,3.90
2022-12-27T05:29:08.175Z,3.90
2022-12-27T05:31:35.253Z,3.90
2022-12-27T05:34:02.284Z,4.00
2022-12-27T05:36:29.207Z,3.90
2022-12-27T05:38:56.127Z,3.90
2022-12-27T05:41:23.033Z,4.00
2022-12-27T05:43:50.904Z,4.00
2022-12-27T05:46:20.876Z,4.00
2022-12-27T05:48:48.606Z,4.00
2022-12-27T05:51:21.274Z,4.00
2022-12-27T05:53:49.066Z,4.00
2022-12-27T05:56:18.925Z,4.00
2022-12-27T05:58:46.177Z,3.90
2022-12-27T06:01:18.417Z,4.00
2022-12-27T06:03:45.767Z,4.00
2022-12-27T06:06:13.560Z,4.00
2022-12-27T06:08:41.195Z,4.00
2022-12-27T06:11:10.475Z,4.00
2022-12-27T06:13:38.863Z,4.00
2022-12-27T06:16:08.436Z,3.90
2022-12-27T06:18:37.313Z,3.90
2022-12-27T06:21:06.611Z,3.90
2022-12-27T06:23:35.296Z,3.90
2022-12-27T06:26:07.219Z,3.90
2022-12-27T06:28:34.704Z,3.90
2022-12-27T06:31:02.337Z,3.90
2022-12-27T06:33:29.280Z,4.00
2022-12-27T06:35:56.515Z,3.90
2022-12-27T06:38:24.007Z,3.90
2022-12-27T06:40:50.844Z,3.90
2022-12-27T06:43:18.084Z,3.90
2022-12-27T06:45:44.949Z,3.90
2022-12-27T06:48:11.847Z,3.90
2022-12-27T06:50:38.684Z,3.90
2022-12-27T06:53:05.585Z,3.90
2022-12-27T06:55:32.497Z,3.90
2022-12-27T06:57:59.325Z,3.90
2022-12-27T07:00:26.157Z,3.90
2022-12-27T07:02:53.164Z,3.90
2022-12-27T07:05:20.059Z,3.90
2022-12-27T07:07:47.085Z,3.90
2022-12-27T07:10:14.128Z,3.80
2022-12-27T07:12:40.987Z,3.80
2022-12-27T07:15:08.862Z,3.80
2022-12-27T07:17:36.234Z,3.80
2022-12-27T07:20:07.361Z,3.80
2022-12-27T07:22:34.654Z,3.80
2022-12-27T07:25:01.767Z,3.80
2022-12-27T07:27:28.597Z,3.80
2022-12-27T07:29:55.658Z,3.80
2022-12-27T07:32:22.619Z,3.80
2022-12-27T07:34:49.474Z,3.80
2022-12-27T07:37:17.742Z,3.80
2022-12-27T07:39:45.452Z,3.80
2022-12-27T07:42:12.342Z,3.80
2022-12-27T07:44:39.388Z,3.70
2022-12-27T07:47:06.821Z,3.70
2022-12-27T07:49:33.740Z,3.80
2022-12-27T07:52:00.585Z,3.80
2022-12-27T07:54:27.566Z,3.80
2022-12-27T07:56:54.424Z,3.80
2022-12-27T07:59:22.414Z,3.80
2022-12-27T08:02:04.627Z,3.90
2022-12-27T08:04:34.421Z,3.90
2022-12-27T08:07:08.643Z,3.90
2022-12-27T08:09:39.201Z,3.90
2022-12-27T08:12:07.025Z,3.90
2022-12-27T08:14:34.174Z,3.90
2022-12-27T08:17:25.471Z,3.90
2022-12-27T08:19:52.370Z,3.90
2022-12-27T08:22:19.297Z,4.00
2022-12-27T08:24:46.318Z,3.90
2022-12-27T08:27:13.305Z,4.00
2022-12-27T08:29:40.267Z,4.00
2022-12-27T08:32:07.105Z,4.10
2022-12-27T08:34:34.886Z,4.10
2022-12-27T08:37:01.707Z,4.10
2022-12-27T08:39:30.035Z,4.10
2022-12-27T08:41:56.998Z,4.20
2022-12-27T08:44:24.402Z,4.30
2022-12-27T08:46:51.952Z,4.30
2022-12-27T08:49:18.803Z,4.30
2022-12-27T08:51:45.636Z,4.30
2022-12-27T08:54:13.260Z,4.30
2022-12-27T08:56:40.120Z,4.30
2022-12-27T08:59:07.036Z,4.30
2022-12-27T09:01:34.136Z,4.30
2022-12-27T09:04:01.050Z,4.30
2022-12-27T09:06:28.240Z,4.40
2022-12-27T09:08:56.458Z,4.50
2022-12-27T09:11:33.118Z,4.50
2022-12-27T09:14:02.423Z,4.50
2022-12-27T09:16:30.666Z,4.50
2022-12-27T09:19:00.222Z,4.70
2022-12-27T09:21:30.090Z,4.70
2022-12-27T09:23:58.062Z,4.80
2022-12-27T09:26:27.818Z,4.90
2022-12-27T09:28:55.564Z,4.90
2022-12-27T09:31:23.671Z,5.00
2022-12-27T09:33:50.624Z,5.00
2022-12-27T09:36:23.807Z,5.10
2022-12-27T09:38:52.810Z,5.10
2022-12-27T09:44:48.694Z,5.30
2022-12-27T09:47:54.251Z,5.40
2022-12-27T09:50:30.495Z,5.40
2022-12-27T09:53:03.646Z,5.50
2022-12-27T09:56:02.848Z,5.50
2022-12-27T09:59:05.115Z,5.60
2022-12-27T10:01:33.985Z,5.70
2022-12-27T10:04:02.487Z,5.80
2022-12-27T10:06:50.762Z,5.80
2022-12-27T10:09:39.796Z,6.00
2022-12-27T10:12:23.389Z,6.00
2022-12-27T10:15:28.015Z,6.10
2022-12-27T10:17:55.198Z,6.10
2022-12-27T10:21:05.760Z,6.20
2022-12-27T10:23:35.052Z,6.30
2022-12-27T10:26:11.322Z,6.40
2022-12-27T10:28:42.729Z,6.40
2022-12-27T10:31:16.806Z,6.50
2022-12-27T10:33:44.816Z,6.50
2022-12-27T10:36:19.152Z,6.60
2022-12-27T10:38:46.187Z,6.50
2022-12-27T10:41:34.135Z,6.60
2022-12-27T10:44:01.439Z,6.60
2022-12-27T10:46:33.660Z,6.70
2022-12-27T10:49:20.639Z,6.80
2022-12-27T10:51:49.282Z,6.80
2022-12-27T10:54:24.295Z,6.80
2022-12-27T10:56:52.043Z,6.90
2022-12-27T10:59:27.887Z,6.90
2022-12-27T11:02:00.842Z,6.90
2022-12-27T11:04:29.998Z,6.90
2022-12-27T11:07:00.537Z,7.00
2022-12-27T11:09:49.882Z,7.10
2022-12-27T11:12:22.405Z,7.10
2022-12-27T11:14:56.789Z,7.10
2022-12-27T11:17:28.990Z,7.20
2022-12-27T11:19:58.978Z,7.20
2022-12-27T11:22:26.823Z,7.30
2022-12-27T11:24:58.651Z,7.40
2022-12-27T11:27:29.844Z,7.40
2022-12-27T11:29:59.287Z,7.50
2022-12-27T11:32:26.411Z,7.50
2022-12-27T11:34:55.949Z,7.60
2022-12-27T11:37:26.431Z,7.60
2022-12-27T11:39:55.915Z,7.60
2022-12-27T11:42:31.526Z,7.70
2022-12-27T11:45:14.158Z,7.60
2022-12-27T11:47:53.674Z,7.60
2022-12-27T11:50:59.072Z,7.70
2022-12-27T11:53:29.250Z,7.70
2022-12-27T11:56:26.573Z,7.80
2022-12-27T11:59:18.242Z,7.80
2022-12-27T12:02:23.779Z,7.90
2022-12-27T12:05:03.257Z,8.00
2022-12-27T12:07:49.227Z,8.00
2022-12-27T12:10:18.857Z,8.10
2022-12-27T12:13:07.291Z,8.20
2022-12-27T12:16:15.480Z,8.30
2022-12-27T12:19:03.549Z,8.30
2022-12-27T12:22:13.795Z,8.30
2022-12-27T12:24:40.899Z,8.50
2022-12-27T12:27:10.846Z,8.50
2022-12-27T12:30:00.321Z,8.40
2022-12-27T12:32:27.184Z,8.20
2022-12-27T12:35:31.409Z,8.10
2022-12-27T12:38:22.523Z,8.20
2022-12-27T12:40:52.316Z,8.10
2022-12-27T12:43:40.400Z,8.10
2022-12-27T12:46:19.663Z,8.10
2022-12-27T12:49:04.626Z,7.90
2022-12-27T12:52:17.797Z,7.90
2022-12-27T12:55:03.402Z,7.80
2022-12-27T12:57:58.175Z,7.70
2022-12-27T13:01:01.837Z,7.60
2022-12-27T13:03:37.799Z,7.50
2022-12-27T13:06:20.051Z,7.50
2022-12-27T13:09:18.091Z,7.50
2022-12-27T13:12:01.898Z,7.60
2022-12-27T13:14:39.456Z,7.70
2022-12-27T13:17:46.227Z,7.70
2022-12-27T13:20:28.271Z,7.70
2022-12-27T13:23:32.869Z,7.80
2022-12-27T13:26:24.639Z,7.90
2022-12-27T13:29:09.730Z,7.90
2022-12-27T13:31:43.032Z,7.80
2022-12-27T13:34:58.827Z,7.90
2022-12-27T13:37:43.885Z,7.80
2022-12-27T13:40:18.172Z,7.70
2022-12-27T13:42:59.776Z,7.70
2022-12-27T13:45:52.030Z,7.60
2022-12-27T13:48:43.606Z,7.70
2022-12-27T13:51:16.373Z,7.70
2022-12-27T13:53:46.226Z,7.70
2022-12-27T13:59:38.925Z,7.80
2022-12-27T14:02:11.797Z,7.90
2022-12-27T14:05:11.687Z,7.90
2022-12-27T14:07:44.653Z,8.00
2022-12-27T14:10:32.119Z,8.00
2022-12-27T14:13:01.824Z,7.80
2022-12-27T14:15:47.555Z,7.80
2022-12-27T14:18:28.924Z,7.70
2022-12-27T14:21:25.157Z,7.70
2022-12-27T14:24:01.345Z,7.60
2022-12-27T14:27:00.952Z,7.60
2022-12-27T14:29:44.249Z,7.60
2022-12-27T14:32:48.232Z,7.50
2022-12-27T14:35:45.528Z,7.50
2022-12-27T14:38:50.331Z,7.40
2022-12-27T14:42:00.286Z,7.30
2022-12-27T14:45:02.348Z,7.30
2022-12-27T14:47:32.012Z,7.30
2022-12-27T14:50:19.116Z,7.30
2022-12-27T14:52:46.531Z,7.20
2022-12-27T14:55:35.914Z,7.20
2022-12-27T14:58:24.759Z,7.10
2022-12-27T15:01:03.922Z,7.10
2022-12-27T15:03:54.805Z,7.10
2022-12-27T15:06:43.385Z,7.10
2022-12-27T15:09:48.313Z,7.00
2022-12-27T15:12:44.307Z,7.00
2022-12-27T15:15:53.346Z,7.00
2022-12-27T15:18:58.355Z,7.10
2022-12-27T15:21:43.740Z,7.10
2022-12-27T15:24:31.811Z,7.10
2022-12-27T15:27:31.436Z,7.00
2022-12-27T15:30:08.631Z,7.00
2022-12-27T15:32:56.500Z,6.90
2022-12-27T15:35:48.054Z,6.90
2022-12-27T15:38:38.014Z,6.90
2022-12-27T15:41:15.898Z,6.90
2022-12-27T15:44:25.498Z,6.90
2022-12-27T15:47:07.524Z,6.90
2022-12-27T15:49:47.933Z,7.00
2022-12-27T15:52:32.938Z,6.90
2022-12-27T15:55:11.268Z,7.00
2022-12-27T15:58:22.646Z,7.00
2022-12-27T16:01:23.979Z,6.90
2022-12-27T16:03:53.705Z,7.00
2022-12-27T16:06:36.071Z,7.00
2022-12-27T16:09:21.250Z,7.10
2022-12-27T16:12:07.039Z,7.10
2022-12-27T16:14:36.669Z,7.10
2022-12-27T16:17:22.100Z,7.10
2022-12-27T16:19:56.143Z,7.10
2022-12-27T16:22:32.919Z,7.10
2022-12-27T16:25:14.421Z,7.20
2022-12-27T16:27:43.461Z,7.10
2022-12-27T16:30:11.150Z,7.20
2022-12-27T16:32:47.611Z,7.20
2022-12-27T16:35:16.475Z,7.10
2022-12-27T16:37:53.965Z,7.10
2022-12-27T16:40:38.176Z,7.10
2022-12-27T16:43:08.503Z,7.00
2022-12-27T16:45:38.196Z,7.00
2022-12-27T16:48:33.645Z,7.10
2022-12-27T16:51:05.337Z,7.00
2022-12-27T16:53:47.797Z,7.10
2022-12-27T16:56:39.043Z,7.00
2022-12-27T16:59:55.529Z,6.90
2022-12-27T17:02:48.599Z,6.90
2022-12-27T17:05:15.556Z,7.00
2022-12-27T17:07:50.589Z,7.00
2022-12-27T17:10:30.317Z,7.00
2022-12-27T17:13:18.498Z,7.00
2022-12-27T17:16:10.227Z,6.90
2022-12-27T17:18:56.240Z,6.90
2022-12-27T17:21:35.837Z,6.90
2022-12-27T17:24:12.789Z,6.90
2022-12-27T17:26:58.235Z,6.90
2022-12-27T17:29:31.734Z,6.90
2022-12-27T17:32:20.611Z,7.00
2022-12-27T17:34:59.576Z,7.00
2022-12-27T17:38:02.134Z,7.00
2022-12-27T17:40:43.972Z,7.00
2022-12-27T17:43:38.503Z,7.00
2022-12-27T17:46:42.948Z,7.00
2022-12-27T17:49:11.604Z,6.90
2022-12-27T17:52:05.903Z,6.90
2022-12-27T17:54:51.230Z,6.90
2022-12-27T17:57:39.054Z,6.90
2022-12-27T18:00:21.100Z,6.90
2022-12-27T18:02:48.902Z,6.90
2022-12-27T18:05:16.634Z,6.80
2022-12-27T18:07:44.789Z,6.90
2022-12-27T18:10:24.839Z,6.80
2022-12-27T18:12:58.812Z,6.80
2022-12-27T18:15:32.317Z,6.80
2022-12-27T18:18:01.934Z,6.80
2022-12-27T18:20:30.049Z,6.70
2022-12-27T18:23:02.886Z,6.70
2022-12-27T18:25:52.193Z,6.70
2022-12-27T18:28:21.251Z,6.70
2022-12-27T18:30:57.185Z,6.70
2022-12-27T18:33:46.436Z,6.70
2022-12-27T18:36:40.899Z,6.60
2022-12-27T18:39:31.981Z,6.60
2022-12-27T18:42:01.857Z,6.60
2022-12-27T18:44:38.810Z,6.60
2022-12-27T18:47:06.415Z,6.50
2022-12-27T18:49:36.673Z,6.50
2022-12-27T18:52:15.954Z,6.40
2022-12-27T18:54:43.199Z,6.40
2022-12-27T18:57:33.352Z,6.30
2022-12-27T19:00:02.861Z,6.20
2022-12-27T19:02:36.124Z,6.30
2022-12-27T19:05:23.147Z,6.20
2022-12-27T19:07:51.049Z,6.30
2022-12-27T19:10:21.371Z,6.30
2022-12-27T19:12:48.443Z,6.30
2022-12-27T19:15:36.926Z,6.20
2022-12-27T19:18:20.056Z,6.20
2022-12-27T19:21:04.660Z,6.10
2022-12-27T19:23:37.156Z,6.10
2022-12-27T19:26:15.931Z,6.10
2022-12-27T19:28:44.696Z,6.00
2022-12-27T19:31:19.822Z,6.00
2022-12-27T19:34:02.356Z,6.00
2022-12-27T19:36:37.847Z,5.90
2022-12-27T19:39:09.413Z,5.90
2022-12-27T19:41:38.240Z,5.80
2022-12-27T19:44:06.391Z,5.80
2022-12-27T19:46:33.428Z,5.80
2022-12-27T19:49:40.288Z,5.70
2022-12-27T19:51:47.842Z,5.70
2022-12-27T19:54:21.031Z,5.70
2022-12-27T19:56:48.352Z,5.70
2022-12-27T19:59:18.757Z,5.70
2022-12-27T20:01:45.980Z,5.70
2022-12-27T20:04:14.723Z,5.60
2022-12-27T20:06:42.371Z,5.60
2022-12-27T20:09:14.245Z,5.60
2022-12-27T20:11:41.284Z,5.60
2022-12-27T20:14:08.369Z,5.60
2022-12-27T20:16:35.632Z,5.60
2022-12-27T20:19:02.875Z,5.60
2022-12-27T20:21:30.362Z,5.50
2022-12-27T20:23:57.394Z,5.50
2022-12-27T20:26:25.711Z,5.50
2022-12-27T20:28:52.986Z,5.50
2022-12-27T20:31:21.384Z,5.40
2022-12-27T20:33:54.202Z,5.50
2022-12-27T20:36:22.098Z,5.50
2022-12-27T20:38:49.881Z,5.40
2022-12-27T20:41:20.608Z,5.50
2022-12-27T20:43:47.749Z,5.40
2022-12-27T20:46:18.608Z,5.40
2022-12-27T20:48:46.589Z,5.40
2022-12-27T20:51:16.464Z,5.40
2022-12-27T20:53:43.911Z,5.50
2022-12-27T20:56:13.267Z,5.40
2022-12-27T20:58:40.711Z,5.40
2022-12-27T21:01:08.621Z,5.30
2022-12-27T21:03:36.995Z,5.30
2022-12-27T21:06:28.719Z,5.30
2022-12-27T21:08:57.984Z,5.30
2022-12-27T21:11:31.470Z,5.40
2022-12-27T21:14:03.620Z,5.40
2022-12-27T21:16:32.864Z,5.40
2022-12-27T21:19:03.511Z,5.40
2022-12-27T21:21:31.877Z,5.40
2022-12-27T21:23:59.190Z,5.40
2022-12-27T21:26:31.893Z,5.40
2022-12-27T21:29:00.553Z,5.40
2022-12-27T21:31:28.025Z,5.40
2022-12-27T21:33:55.312Z,5.40
2022-12-27T21:36:27.349Z,5.40
2022-12-27T21:38:55.231Z,5.50
2022-12-27T21:41:24.685Z,5.50
2022-12-27T21:43:52.419Z,5.50
2022-12-27T21:46:21.654Z,5.40
2022-12-27T21:48:53.267Z,5.50
2022-12-27T21:51:20.295Z,5.40
2022-12-27T21:53:48.655Z,5.50
2022-12-27T21:56:17.537Z,5.50
2022-12-27T21:58:45.194Z,5.40
2022-12-27T22:01:18.908Z,5.40
2022-12-27T22:03:48.487Z,5.40
2022-12-27T22:06:19.258Z,5.40
2022-12-27T22:08:49.486Z,5.50
2022-12-27T22:11:18.045Z,5.50
2022-12-27T22:13:45.101Z,5.50
2022-12-27T22:16:20.583Z,5.50
2022-12-27T22:18:48.710Z,5.50
2022-12-27T22:21:19.030Z,5.50
2022-12-27T22:23:48.045Z,5.40
2022-12-27T22:26:21.078Z,5.50
2022-12-27T22:28:48.571Z,5.40
2022-12-27T22:31:21.107Z,5.50
2022-12-27T22:33:49.460Z,5.50
2022-12-27T22:36:21.910Z,5.50
2022-12-27T22:38:53.669Z,5.50
2022-12-27T22:41:26.447Z,5.40
2022-12-27T22:44:05.355Z,5.50
2022-12-27T22:46:58.715Z,5.50
2022-12-27T22:49:21.537Z,5.50
2022-12-27T22:51:48.372Z,5.50
2022-12-27T22:54:15.933Z,5.50
2022-12-27T22:56:43.865Z,5.50
2022-12-27T22:59:12.995Z,5.60
2022-12-27T23:01:41.342Z,5.60
2022-12-27T23:04:11.020Z,5.60
2022-12-27T23:06:39.234Z,5.60
2022-12-27T23:09:07.814Z,5.60
2022-12-27T23:11:37.640Z,5.60
2022-12-27T23:14:09.225Z,5.60
2022-12-27T23:16:38.150Z,5.50
2022-12-27T23:19:06.531Z,5.60
2022-12-27T23:21:33.977Z,5.60
2022-12-27T23:24:00.806Z,5.60
2022-12-27T23:26:28.297Z,5.60
2022-12-27T23:28:55.325Z,5.70
2022-12-27T23:31:23.744Z,5.60
2022-12-27T23:33:50.971Z,5.60
2022-12-27T23:36:18.692Z,5.60
2022-12-27T23:38:45.782Z,5.60
2022-12-27T23:41:19.062Z,5.60
2022-12-27T23:43:54.880Z,5.60
2022-12-27T23:46:29.360Z,5.60
2022-12-27T23:49:01.589Z,5.70
2022-12-27T23:51:30.265Z,5.80
2022-12-27T23:53:57.716Z,5.70
2022-12-27T23:56:30.609Z,5.80
2022-12-27T23:58:59.260Z,5.70
